createdAt,value
2023-03-20T00:01:55.211Z,100500.19
2023-03-20T00:04:57.968Z,100507.41
2023-03-20T00:08:00.808Z,100497.47
2023-03-20T00:11:03.605Z,100507.41
2023-03-20T00:14:10.872Z,100502.09
2023-03-20T00:17:20.191Z,100511.09
2023-03-20T00:20:23.888Z,100513.81
2023-03-20T00:23:27.135Z,100508.41
2023-03-20T00:26:35.380Z,100513.91
2023-03-20T00:29:39.580Z,100510.44
2023-03-20T00:32:42.312Z,100510.56
2023-03-20T00:35:45.098Z,100510.69
2023-03-20T00:38:47.884Z,100507.19
2023-03-20T00:41:53.895Z,100512.63
2023-03-20T00:44:59.599Z,100516.25
2023-03-20T00:48:03.524Z,100516.19
2023-03-20T00:51:06.548Z,100512.59
2023-03-20T00:54:15.503Z,100511.00
2023-03-20T00:57:22.665Z,100518.03
2023-03-20T01:00:47.896Z,100519.84
2023-03-20T01:04:02.265Z,100514.41
2023-03-20T01:07:08.264Z,100520.47
2023-03-20T01:10:17.793Z,100510.69
2023-03-20T01:13:23.600Z,100518.03
2023-03-20T01:16:33.597Z,100523.56
2023-03-20T01:19:36.526Z,100530.84
2023-03-20T01:22:39.206Z,100530.91
2023-03-20T01:25:42.950Z,100538.25
2023-03-20T01:28:46.050Z,100541.97
2023-03-20T01:31:53.620Z,100542.56
2023-03-20T01:34:56.356Z,100545.19
2023-03-20T01:38:01.947Z,100551.47
2023-03-20T01:41:08.841Z,100543.78
2023-03-20T01:44:20.585Z,100548.94
2023-03-20T01:47:27.869Z,100549.78
2023-03-20T01:50:32.794Z,100547.00
2023-03-20T01:53:35.754Z,100551.59
2023-03-20T01:56:42.738Z,100565.13
2023-03-20T01:59:50.330Z,100557.00
2023-03-20T02:02:54.934Z,100555.28
2023-03-20T02:05:58.493Z,100555.22
2023-03-20T02:09:01.761Z,100563.28
2023-03-20T02:12:05.968Z,100535.56
2023-03-20T02:15:10.883Z,100556.78
2023-03-20T02:18:15.018Z,100554.84
2023-03-20T02:21:54.622Z,100559.44
2023-03-20T02:25:35.848Z,100550.34
2023-03-20T02:29:01.094Z,100545.81
2023-03-20T02:32:42.315Z,100543.81
2023-03-20T02:36:13.348Z,100549.19
2023-03-20T02:39:56.750Z,100539.75
2023-03-20T02:43:09.978Z,100543.94
2023-03-20T02:46:21.731Z,100522.66
2023-03-20T02:49:50.577Z,100545.03
2023-03-20T02:53:01.562Z,100542.06
2023-03-20T02:56:13.823Z,100535.91
2023-03-20T02:59:26.858Z,100538.59
2023-03-20T03:02:36.808Z,100542.03
2023-03-20T03:05:44.948Z,100546.34
2023-03-20T03:09:00.098Z,100550.94
2023-03-20T03:12:12.278Z,100548.22
2023-03-20T03:15:27.077Z,100545.53
2023-03-20T03:18:32.319Z,100539.63
2023-03-20T03:21:38.388Z,100546.97
2023-03-20T03:24:45.666Z,100550.03
2023-03-20T03:27:55.281Z,100545.41
2023-03-20T03:31:00.152Z,100557.22
2023-03-20T03:34:03.808Z,100553.75
2023-03-20T03:37:13.987Z,100557.59
2023-03-20T03:40:22.968Z,100557.59
2023-03-20T03:43:32.278Z,100554.81
2023-03-20T03:46:41.803Z,100564.75
2023-03-20T03:49:51.981Z,100569.19
2023-03-20T03:52:59.711Z,100558.44
2023-03-20T03:56:05.445Z,100548.91
2023-03-20T03:59:15.985Z,100571.94
2023-03-20T04:02:21.424Z,100563.91
2023-03-20T04:05:48.671Z,100566.81
2023-03-20T04:08:51.869Z,100562.06
2023-03-20T04:11:57.676Z,100562.31
2023-03-20T04:15:05.570Z,100572.00
2023-03-20T04:18:08.294Z,100567.50
2023-03-20T04:21:13.170Z,100574.47
2023-03-20T04:24:18.593Z,100571.69
2023-03-20T04:27:35.291Z,100578.22
2023-03-20T04:30:39.333Z,100578.09
2023-03-20T04:33:42.050Z,100575.47
2023-03-20T04:36:45.576Z,100575.47
2023-03-20T04:39:48.425Z,100590.56
2023-03-20T04:43:04.392Z,100585.91
2023-03-20T04:46:09.296Z,100596.56
2023-03-20T04:49:12.046Z,100590.16
2023-03-20T04:52:16.929Z,100584.72
2023-03-20T04:55:19.722Z,100583.75
2023-03-20T04:58:31.799Z,100589.91
2023-03-20T05:01:38.291Z,100586.16
2023-03-20T05:04:42.716Z,100582.53
2023-03-20T05:07:45.531Z,100584.47
2023-03-20T05:10:48.803Z,100583.72
2023-03-20T05:13:56.427Z,100587.22
2023-03-20T05:17:01.333Z,100591.50
2023-03-20T05:20:05.214Z,100589.66
2023-03-20T05:23:11.809Z,100594.97
2023-03-20T05:26:14.483Z,100592.22
2023-03-20T05:29:17.147Z,100603.97
2023-03-20T05:32:24.185Z,100604.78
2023-03-20T05:35:26.987Z,100601.88
2023-03-20T05:38:34.814Z,100608.13
2023-03-20T05:41:37.868Z,100611.66
2023-03-20T05:44:41.117Z,100605.31
2023-03-20T05:47:47.747Z,100607.91
2023-03-20T05:50:50.440Z,100614.03
2023-03-20T05:53:53.091Z,100603.94
2023-03-20T05:56:58.913Z,100617.28
2023-03-20T06:00:01.764Z,100599.91
2023-03-20T06:03:07.309Z,100598.81
2023-03-20T06:06:10.515Z,100605.78
2023-03-20T06:09:14.307Z,100606.44
2023-03-20T06:12:17.203Z,100605.34
2023-03-20T06:15:25.329Z,100600.72
2023-03-20T06:18:29.477Z,100594.19
2023-03-20T06:21:32.143Z,100586.91
2023-03-20T06:24:35.460Z,100591.22
2023-03-20T06:27:41.159Z,100581.09
2023-03-20T06:30:46.284Z,100580.94
2023-03-20T06:33:50.863Z,100594.97
2023-03-20T06:36:53.503Z,100592.75
2023-03-20T06:39:56.470Z,100601.47
2023-03-20T06:42:59.143Z,100610.94
2023-03-20T06:46:02.046Z,100611.59
2023-03-20T06:49:06.336Z,100614.16
2023-03-20T06:52:09.737Z,100613.13
2023-03-20T06:55:19.930Z,100610.22
2023-03-20T06:58:25.889Z,100604.59
2023-03-20T07:01:34.526Z,100609.66
2023-03-20T07:04:38.903Z,100609.19
2023-03-20T07:07:42.974Z,100608.50
2023-03-20T07:10:51.828Z,100616.56
2023-03-20T07:13:54.611Z,100619.34
2023-03-20T07:16:57.495Z,100613.56
2023-03-20T07:20:02.291Z,100612.53
2023-03-20T07:23:08.512Z,100610.75
2023-03-20T07:26:11.323Z,100619.00
2023-03-20T07:29:17.066Z,100624.56
2023-03-20T07:32:20.766Z,100633.00
2023-03-20T07:35:25.716Z,100635.16
2023-03-20T07:38:33.406Z,100639.03
2023-03-20T07:41:41.424Z,100634.59
2023-03-20T07:44:44.933Z,100637.50
2023-03-20T07:47:50.747Z,100647.31
2023-03-20T07:50:54.764Z,100637.25
2023-03-20T07:54:09.523Z,100634.34
2023-03-20T07:57:14.378Z,100633.78
2023-03-20T08:00:23.535Z,100640.34
2023-03-20T08:03:28.150Z,100635.97
2023-03-20T08:06:44.633Z,100636.91
2023-03-20T08:10:01.874Z,100637.59
2023-03-20T08:13:10.546Z,100637.97
2023-03-20T08:16:13.297Z,100649.03
2023-03-20T08:19:15.990Z,100643.06
2023-03-20T08:22:20.076Z,100639.22
2023-03-20T08:25:25.920Z,100638.50
2023-03-20T08:28:45.774Z,100638.56
2023-03-20T08:31:49.562Z,100642.28
2023-03-20T08:34:55.013Z,100649.78
2023-03-20T08:37:59.067Z,100654.69
2023-03-20T08:41:09.524Z,100658.75
2023-03-20T08:44:12.399Z,100667.91
2023-03-20T08:47:15.113Z,100667.28
2023-03-20T08:50:18.193Z,100673.88
2023-03-20T08:53:22.366Z,100674.88
2023-03-20T08:56:25.188Z,100667.84
2023-03-20T08:59:31.329Z,100663.38
2023-03-20T09:02:34.514Z,100664.25
2023-03-20T09:05:37.909Z,100665.81
2023-03-20T09:08:46.180Z,100670.06
2023-03-20T09:11:48.851Z,100667.91
2023-03-20T09:14:51.853Z,100674.91
2023-03-20T09:17:54.543Z,100671.09
2023-03-20T09:20:57.519Z,100673.53
2023-03-20T09:24:04.892Z,100686.84
2023-03-20T09:27:07.710Z,100680.25
2023-03-20T09:30:14.576Z,100662.25
2023-03-20T09:33:18.896Z,100679.59
2023-03-20T09:36:33.933Z,100679.47
2023-03-20T09:39:38.019Z,100693.88
2023-03-20T09:42:47.959Z,100692.09
2023-03-20T09:46:03.241Z,100688.56
2023-03-20T09:49:27.555Z,100692.41
2023-03-20T09:52:33.680Z,100691.75
2023-03-20T09:55:40.455Z,100673.28
2023-03-20T09:58:45.319Z,100684.66
2023-03-20T10:02:00.330Z,100683.72
2023-03-20T10:05:05.923Z,100684.50
2023-03-20T10:08:16.855Z,100687.22
2023-03-20T10:11:56.330Z,100693.59
2023-03-20T10:15:09.857Z,100696.47
2023-03-20T10:18:27.592Z,100691.84
2023-03-20T10:21:43.366Z,100691.16
2023-03-20T10:24:49.595Z,100693.47
2023-03-20T10:28:06.997Z,100689.16
2023-03-20T10:31:23.350Z,100692.22
2023-03-20T10:34:42.608Z,100690.81
2023-03-20T10:38:00.354Z,100704.31
2023-03-20T10:41:05.442Z,100698.00
2023-03-20T10:44:17.532Z,100688.25
2023-03-20T10:47:29.681Z,100696.94
2023-03-20T10:50:41.159Z,100702.69
2023-03-20T10:53:49.904Z,100699.00
2023-03-20T10:57:23.236Z,100695.19
2023-03-20T11:00:34.153Z,100693.34
2023-03-20T11:03:39.746Z,100690.75
2023-03-20T11:06:51.530Z,100687.56
2023-03-20T11:10:10.496Z,100689.53
2023-03-20T11:13:26.482Z,100680.13
2023-03-20T11:16:36.822Z,100687.44
2023-03-20T11:19:43.282Z,100680.53
2023-03-20T11:22:49.009Z,100676.56
2023-03-20T11:25:54.369Z,100671.69
2023-03-20T11:29:01.639Z,100673.69
2023-03-20T11:32:08.616Z,100666.41
2023-03-20T11:35:19.198Z,100664.72
2023-03-20T11:38:30.429Z,100655.13
2023-03-20T11:41:40.943Z,100662.19
2023-03-20T11:44:58.283Z,100652.41
2023-03-20T11:48:04.082Z,100650.56
2023-03-20T11:51:10.260Z,100650.59
2023-03-20T11:54:18.490Z,100644.56
2023-03-20T11:57:33.093Z,100630.31
2023-03-20T12:00:40.777Z,100633.16
2023-03-20T12:03:52.049Z,100632.19
2023-03-20T12:07:03.762Z,100624.41
2023-03-20T12:10:11.851Z,100618.16
2023-03-20T12:13:26.193Z,100616.41
2023-03-20T12:16:30.911Z,100616.22
2023-03-20T12:19:36.412Z,100617.56
2023-03-20T12:22:44.498Z,100612.00
2023-03-20T12:26:01.048Z,100614.22
2023-03-20T12:29:08.950Z,100585.34
2023-03-20T12:32:18.307Z,100599.94
2023-03-20T12:35:27.461Z,100591.69
2023-03-20T12:38:32.713Z,100600.50
2023-03-20T12:41:43.480Z,100591.16
2023-03-20T12:44:54.199Z,100583.06
2023-03-20T12:48:10.943Z,100567.25
2023-03-20T12:51:24.409Z,100580.59
2023-03-20T12:54:41.514Z,100576.38
2023-03-20T12:57:56.709Z,100565.94
2023-03-20T13:01:05.417Z,100561.06
2023-03-20T13:04:28.239Z,100562.66
2023-03-20T13:07:45.752Z,100556.31
2023-03-20T13:10:57.597Z,100553.13
2023-03-20T13:14:06.263Z,100545.38
2023-03-20T13:17:19.336Z,100543.31
2023-03-20T13:20:27.063Z,100537.13
2023-03-20T13:23:38.281Z,100537.88
2023-03-20T13:26:46.808Z,100534.25
2023-03-20T13:29:57.511Z,100530.84
2023-03-20T13:33:10.630Z,100522.25
2023-03-20T13:36:25.417Z,100528.50
2023-03-20T13:39:34.690Z,100524.81
2023-03-20T13:42:41.952Z,100526.44
2023-03-20T13:45:44.739Z,100525.06
2023-03-20T13:48:48.219Z,100526.97
2023-03-20T13:51:57.910Z,100519.41
2023-03-20T13:55:23.631Z,100517.09
2023-03-20T13:58:40.928Z,100501.25
2023-03-20T14:01:56.189Z,100504.25
2023-03-20T14:05:05.834Z,100497.38
2023-03-20T14:08:33.197Z,100495.91
2023-03-20T14:11:39.009Z,100493.47
2023-03-20T14:14:44.202Z,100488.63
2023-03-20T14:17:49.044Z,100491.34
2023-03-20T14:20:58.162Z,100477.88
2023-03-20T14:24:05.614Z,100482.19
2023-03-20T14:27:29.821Z,100459.34
2023-03-20T14:30:44.721Z,100481.22
2023-03-20T14:33:58.704Z,100480.22
2023-03-20T14:37:04.843Z,100474.59
2023-03-20T14:40:20.127Z,100476.06
2023-03-20T14:43:56.894Z,100471.78
2023-03-20T14:47:06.394Z,100477.16
2023-03-20T14:50:19.113Z,100477.81
2023-03-20T14:53:24.822Z,100480.38
2023-03-20T14:56:32.390Z,100476.66
2023-03-20T14:59:36.634Z,100475.97
2023-03-20T15:02:39.366Z,100469.13
2023-03-20T15:05:42.627Z,100469.31
2023-03-20T15:08:48.503Z,100466.59
2023-03-20T15:11:52.618Z,100467.75
2023-03-20T15:14:58.493Z,100468.66
2023-03-20T15:18:05.793Z,100465.22
2023-03-20T15:21:16.543Z,100450.13
2023-03-20T15:24:23.020Z,100453.81
2023-03-20T15:27:29.608Z,100449.06
2023-03-20T15:30:37.625Z,100454.72
2023-03-20T15:33:43.729Z,100466.03
2023-03-20T15:36:46.613Z,100456.47
2023-03-20T15:39:52.139Z,100457.47
2023-03-20T15:43:02.276Z,100452.78
2023-03-20T15:46:18.072Z,100461.75
2023-03-20T15:49:22.989Z,100463.84
2023-03-20T15:52:30.743Z,100458.22
2023-03-20T15:55:33.945Z,100451.59
2023-03-20T15:58:37.560Z,100460.25
2023-03-20T16:01:41.921Z,100455.19
2023-03-20T16:04:47.886Z,100452.81
2023-03-20T16:07:50.525Z,100453.47
2023-03-20T16:10:57.864Z,100452.75
2023-03-20T16:14:00.738Z,100443.00
2023-03-20T16:17:06.161Z,100452.44
2023-03-20T16:20:15.791Z,100453.31
2023-03-20T16:23:33.522Z,100445.31
2023-03-20T16:26:46.797Z,100449.97
2023-03-20T16:29:52.410Z,100445.78
2023-03-20T16:33:00.758Z,100441.56
2023-03-20T16:36:05.228Z,100445.44
2023-03-20T16:39:10.668Z,100447.72
2023-03-20T16:42:24.531Z,100450.97
2023-03-20T16:45:31.278Z,100457.59
2023-03-20T16:48:37.729Z,100455.97
2023-03-20T16:51:43.932Z,100457.91
2023-03-20T16:54:48.819Z,100463.56
2023-03-20T16:57:55.906Z,100459.16
2023-03-20T17:01:07.103Z,100462.16
2023-03-20T17:04:19.895Z,100464.81
2023-03-20T17:07:30.790Z,100470.50
2023-03-20T17:10:33.430Z,100459.25
2023-03-20T17:13:36.307Z,100469.25
2023-03-20T17:16:40.314Z,100473.47
2023-03-20T17:19:44.737Z,100477.63
2023-03-20T17:22:47.768Z,100477.03
2023-03-20T17:25:51.972Z,100473.72
2023-03-20T17:28:55.567Z,100473.50
2023-03-20T17:31:58.359Z,100477.16
2023-03-20T17:35:02.613Z,100478.28
2023-03-20T17:38:05.367Z,100483.97
2023-03-20T17:41:13.843Z,100487.03
2023-03-20T17:44:16.637Z,100492.31
2023-03-20T17:47:20.976Z,100497.03
2023-03-20T17:50:27.268Z,100491.13
2023-03-20T17:53:31.359Z,100492.34
2023-03-20T17:56:34.119Z,100499.59
2023-03-20T17:59:37.389Z,100511.09
2023-03-20T18:02:40.139Z,100493.28
2023-03-20T18:05:44.205Z,100507.50
2023-03-20T18:08:46.851Z,100518.13
2023-03-20T18:11:49.965Z,100517.25
2023-03-20T18:14:52.647Z,100514.53
2023-03-20T18:17:55.589Z,100523.69
2023-03-20T18:21:00.010Z,100523.88
2023-03-20T18:24:03.430Z,100521.78
2023-03-20T18:27:06.739Z,100536.91
2023-03-20T18:30:16.504Z,100521.78
2023-03-20T18:33:19.514Z,100529.13
2023-03-20T18:36:25.381Z,100531.25
2023-03-20T18:39:28.531Z,100536.06
2023-03-20T18:42:31.264Z,100530.47
2023-03-20T18:45:38.790Z,100534.72
2023-03-20T18:48:42.254Z,100540.66
2023-03-20T18:51:47.029Z,100532.88
2023-03-20T18:54:49.834Z,100537.28
2023-03-20T18:57:52.938Z,100536.09
2023-03-20T19:00:57.035Z,100533.97
2023-03-20T19:03:59.810Z,100533.16
2023-03-20T19:07:03.931Z,100533.91
2023-03-20T19:10:07.553Z,100544.41
2023-03-20T19:13:13.536Z,100544.56
2023-03-20T19:16:23.318Z,100547.94
2023-03-20T19:19:26.116Z,100546.34
2023-03-20T19:22:30.200Z,100547.66
2023-03-20T19:25:33.194Z,100547.72
2023-03-20T19:28:40.908Z,100543.44
2023-03-20T19:31:44.058Z,100539.16
2023-03-20T19:35:35.139Z,100552.09
2023-03-20T19:38:14.153Z,100551.41
2023-03-20T19:41:16.869Z,100546.72
2023-03-20T19:44:19.780Z,100543.16
2023-03-20T19:47:22.532Z,100535.16
2023-03-20T19:50:30.319Z,100540.47
2023-03-20T19:53:34.398Z,100536.91
2023-03-20T19:56:37.061Z,100537.88
2023-03-20T19:59:43.915Z,100548.72
2023-03-20T20:02:47.592Z,100550.53
2023-03-20T20:05:51.464Z,100552.56
2023-03-20T20:08:55.465Z,100550.88
2023-03-20T20:11:58.932Z,100550.97
2023-03-20T20:15:01.571Z,100553.56
2023-03-20T20:18:04.289Z,100556.34
2023-03-20T20:24:32.181Z,100564.41
2023-03-20T20:27:35.119Z,100555.34
2023-03-20T20:30:39.147Z,100547.38
2023-03-20T20:34:02.205Z,100556.94
2023-03-20T20:38:09.099Z,100558.72
2023-03-20T20:40:47.130Z,100554.13
2023-03-20T20:44:14.470Z,100546.00
2023-03-20T20:47:13.159Z,100551.41
2023-03-20T20:50:18.240Z,100543.28
2023-03-20T20:53:21.532Z,100545.88
2023-03-20T20:56:26.092Z,100546.81
2023-03-20T20:59:43.145Z,100551.19
2023-03-20T21:02:45.856Z,100557.50
2023-03-20T21:05:48.601Z,100556.72
2023-03-20T21:08:51.264Z,100555.06
2023-03-20T21:11:55.747Z,100551.41
2023-03-20T21:14:58.858Z,100564.19
2023-03-20T21:18:02.139Z,100562.38
2023-03-20T21:21:05.898Z,100558.94
2023-03-20T21:24:30.574Z,100560.75
2023-03-20T21:27:38.230Z,100551.53
2023-03-20T21:30:54.560Z,100554.31
2023-03-20T21:34:05.274Z,100556.34
2023-03-20T21:38:15.833Z,100560.00
2023-03-20T21:40:32.161Z,100558.22
2023-03-20T21:43:36.280Z,100550.91
2023-03-20T21:54:24.388Z,100559.88
2023-03-20T22:04:26.957Z,100568.94
2023-03-20T22:14:41.010Z,100561.63
2023-03-20T22:17:51.365Z,100564.41
2023-03-20T22:24:51.908Z,100557.22
2023-03-20T22:28:02.539Z,100558.16
2023-03-20T22:31:34.524Z,100560.06
2023-03-20T22:35:30.904Z,100559.38
2023-03-20T22:45:01.725Z,100563.19
2023-03-20T22:48:06.191Z,100555.28
2023-03-20T22:51:10.721Z,100559.00
2023-03-20T22:54:13.623Z,100564.28
2023-03-20T22:57:16.565Z,100547.03
2023-03-20T23:00:19.619Z,100548.81
2023-03-20T23:03:39.923Z,100548.75
2023-03-20T23:06:45.291Z,100551.44
2023-03-20T23:09:54.037Z,100543.38
2023-03-20T23:12:56.718Z,100538.84
2023-03-20T23:15:59.474Z,100531.72
2023-03-20T23:19:02.371Z,100534.44
2023-03-20T23:22:06.346Z,100545.38
2023-03-20T23:25:20.968Z,100539.97
2023-03-20T23:28:37.582Z,100532.94
2023-03-20T23:31:40.438Z,100539.16
2023-03-20T23:34:45.280Z,100531.94
2023-03-20T23:37:58.660Z,100534.69
2023-03-20T23:41:01.977Z,100532.81
2023-03-20T23:44:05.055Z,100529.13
2023-03-20T23:47:17.964Z,100530.91
2023-03-20T23:50:42.590Z,100529.13
2023-03-20T23:53:47.174Z,100528.13
2023-03-20T23:56:52.119Z,100533.53
2023-03-20T23:59:54.822Z,100527.50
